sensor_id;sensor_type;location;lat;lon;timestamp;P1;durP1;ratioP1;P2;durP2;ratioP2
6205;SDS011;3136;48.788;9.772;2023-08-06T00:01:48;7.67;;;6.37;;
6205;SDS011;3136;48.788;9.772;2023-08-06T00:04:13;7.83;;;6.63;;
6205;SDS011;3136;48.788;9.772;2023-08-06T00:06:39;8.27;;;6.47;;
6205;SDS011;3136;48.788;9.772;2023-08-06T00:09:05;7.03;;;6.43;;
6205;SDS011;3136;48.788;9.772;2023-08-06T00:11:30;8.73;;;6.40;;
6205;SDS011;3136;48.788;9.772;2023-08-06T00:13:56;7.47;;;6.70;;
6205;SDS011;3136;48.788;9.772;2023-08-06T00:16:22;13.13;;;6.97;;
6205;SDS011;3136;48.788;9.772;2023-08-06T00:18:47;7.70;;;6.77;;
6205;SDS011;3136;48.788;9.772;2023-08-06T00:21:13;7.33;;;6.60;;
6205;SDS011;3136;48.788;9.772;2023-08-06T00:23:39;10.93;;;7.20;;
6205;SDS011;3136;48.788;9.772;2023-08-06T00:26:05;8.53;;;7.27;;
6205;SDS011;3136;48.788;9.772;2023-08-06T00:28:31;9.83;;;7.20;;
6205;SDS011;3136;48.788;9.772;2023-08-06T00:30:56;10.13;;;7.63;;
6205;SDS011;3136;48.788;9.772;2023-08-06T00:33:22;10.23;;;7.73;;
6205;SDS011;3136;48.788;9.772;2023-08-06T00:35:48;13.53;;;9.27;;
6205;SDS011;3136;48.788;9.772;2023-08-06T00:38:14;11.47;;;7.87;;
6205;SDS011;3136;48.788;9.772;2023-08-06T00:40:40;11.53;;;7.70;;
6205;SDS011;3136;48.788;9.772;2023-08-06T00:43:06;8.47;;;7.57;;
6205;SDS011;3136;48.788;9.772;2023-08-06T00:45:33;9.10;;;7.43;;
6205;SDS011;3136;48.788;9.772;2023-08-06T00:48:00;9.60;;;6.67;;
6205;SDS011;3136;48.788;9.772;2023-08-06T00:50:28;8.87;;;7.23;;
6205;SDS011;3136;48.788;9.772;2023-08-06T00:52:53;8.90;;;7.67;;
6205;SDS011;3136;48.788;9.772;2023-08-06T00:55:19;13.13;;;7.73;;
6205;SDS011;3136;48.788;9.772;2023-08-06T00:57:45;9.97;;;7.87;;
6205;SDS011;3136;48.788;9.772;2023-08-06T01:00:11;8.13;;;7.33;;
6205;SDS011;3136;48.788;9.772;2023-08-06T01:02:37;9.70;;;7.93;;
6205;SDS011;3136;48.788;9.772;2023-08-06T01:05:02;12.87;;;8.27;;
6205;SDS011;3136;48.788;9.772;2023-08-06T01:13:02;10.03;;;7.87;;
6205;SDS011;3136;48.788;9.772;2023-08-06T01:15:38;9.80;;;7.67;;
6205;SDS011;3136;48.788;9.772;2023-08-06T01:18:08;11.47;;;7.80;;
6205;SDS011;3136;48.788;9.772;2023-08-06T01:20:35;12.13;;;7.90;;
6205;SDS011;3136;48.788;9.772;2023-08-06T01:23:01;12.37;;;8.50;;
6205;SDS011;3136;48.788;9.772;2023-08-06T01:25:29;12.87;;;8.17;;
6205;SDS011;3136;48.788;9.772;2023-08-06T01:30:58;10.50;;;7.43;;
6205;SDS011;3136;48.788;9.772;2023-08-06T01:33:26;11.33;;;8.57;;
6205;SDS011;3136;48.788;9.772;2023-08-06T01:35:55;10.20;;;8.10;;
6205;SDS011;3136;48.788;9.772;2023-08-06T01:38:23;11.73;;;8.83;;
6205;SDS011;3136;48.788;9.772;2023-08-06T01:40:49;11.40;;;8.83;;
6205;SDS011;3136;48.788;9.772;2023-08-06T01:43:15;13.20;;;9.40;;
6205;SDS011;3136;48.788;9.772;2023-08-06T01:45:41;11.87;;;9.33;;
6205;SDS011;3136;48.788;9.772;2023-08-06T01:48:06;11.57;;;8.77;;
6205;SDS011;3136;48.788;9.772;2023-08-06T01:50:32;10.07;;;8.23;;
6205;SDS011;3136;48.788;9.772;2023-08-06T01:52:57;9.40;;;8.40;;
6205;SDS011;3136;48.788;9.772;2023-08-06T01:55:23;10.97;;;8.37;;
6205;SDS011;3136;48.788;9.772;2023-08-06T01:57:48;10.57;;;8.00;;
6205;SDS011;3136;48.788;9.772;2023-08-06T02:00:14;9.50;;;8.03;;
6205;SDS011;3136;48.788;9.772;2023-08-06T02:02:39;9.10;;;7.83;;
6205;SDS011;3136;48.788;9.772;2023-08-06T02:05:06;15.03;;;8.37;;
6205;SDS011;3136;48.788;9.772;2023-08-06T02:07:31;10.53;;;8.13;;
6205;SDS011;3136;48.788;9.772;2023-08-06T02:09:57;21.87;;;9.00;;
6205;SDS011;3136;48.788;9.772;2023-08-06T02:12:22;71.40;;;10.83;;
6205;SDS011;3136;48.788;9.772;2023-08-06T02:14:48;135.50;;;11.07;;
6205;SDS011;3136;48.788;9.772;2023-08-06T02:17:13;121.60;;;11.50;;
6205;SDS011;3136;48.788;9.772;2023-08-06T02:19:39;22.60;;;9.40;;
6205;SDS011;3136;48.788;9.772;2023-08-06T02:22:05;40.60;;;10.57;;
6205;SDS011;3136;48.788;9.772;2023-08-06T02:24:30;54.83;;;11.17;;
6205;SDS011;3136;48.788;9.772;2023-08-06T02:26:56;78.90;;;12.57;;
6205;SDS011;3136;48.788;9.772;2023-08-06T02:29:21;46.77;;;11.00;;
6205;SDS011;3136;48.788;9.772;2023-08-06T02:31:47;46.40;;;11.60;;
6205;SDS011;3136;48.788;9.772;2023-08-06T02:34:12;41.83;;;11.53;;
6205;SDS011;3136;48.788;9.772;2023-08-06T02:36:38;36.47;;;11.50;;
6205;SDS011;3136;48.788;9.772;2023-08-06T02:39:03;21.37;;;12.20;;
6205;SDS011;3136;48.788;9.772;2023-08-06T02:41:29;18.53;;;11.70;;
6205;SDS011;3136;48.788;9.772;2023-08-06T02:43:54;11.97;;;9.53;;
6205;SDS011;3136;48.788;9.772;2023-08-06T02:46:20;17.93;;;11.43;;
6205;SDS011;3136;48.788;9.772;2023-08-06T02:48:45;16.93;;;11.13;;
6205;SDS011;3136;48.788;9.772;2023-08-06T02:51:11;16.50;;;11.30;;
6205;SDS011;3136;48.788;9.772;2023-08-06T02:53:36;18.23;;;11.27;;
6205;SDS011;3136;48.788;9.772;2023-08-06T02:56:02;14.80;;;10.70;;
6205;SDS011;3136;48.788;9.772;2023-08-06T02:58:28;16.23;;;10.50;;
6205;SDS011;3136;48.788;9.772;2023-08-06T03:01:03;12.40;;;10.30;;
6205;SDS011;3136;48.788;9.772;2023-08-06T03:03:31;14.33;;;10.63;;
6205;SDS011;3136;48.788;9.772;2023-08-06T03:05:57;12.47;;;10.17;;
6205;SDS011;3136;48.788;9.772;2023-08-06T03:08:22;10.77;;;9.23;;
6205;SDS011;3136;48.788;9.772;2023-08-06T03:10:49;11.30;;;9.50;;
6205;SDS011;3136;48.788;9.772;2023-08-06T03:13:15;14.93;;;10.17;;
6205;SDS011;3136;48.788;9.772;2023-08-06T03:15:41;11.93;;;9.83;;
6205;SDS011;3136;48.788;9.772;2023-08-06T03:18:07;11.00;;;9.10;;
6205;SDS011;3136;48.788;9.772;2023-08-06T03:20:32;10.37;;;8.70;;
6205;SDS011;3136;48.788;9.772;2023-08-06T03:22:58;18.63;;;9.70;;
6205;SDS011;3136;48.788;9.772;2023-08-06T03:25:23;11.23;;;9.80;;
6205;SDS011;3136;48.788;9.772;2023-08-06T03:27:49;12.87;;;8.47;;
6205;SDS011;3136;48.788;9.772;2023-08-06T03:30:15;11.50;;;8.30;;
6205;SDS011;3136;48.788;9.772;2023-08-06T03:32:40;11.37;;;7.67;;
6205;SDS011;3136;48.788;9.772;2023-08-06T03:35:06;10.37;;;8.47;;
6205;SDS011;3136;48.788;9.772;2023-08-06T03:37:32;10.73;;;8.03;;
6205;SDS011;3136;48.788;9.772;2023-08-06T03:39:57;12.57;;;8.40;;
6205;SDS011;3136;48.788;9.772;2023-08-06T03:42:23;10.93;;;8.03;;
6205;SDS011;3136;48.788;9.772;2023-08-06T03:44:48;11.07;;;6.97;;
6205;SDS011;3136;48.788;9.772;2023-08-06T03:47:14;9.07;;;6.83;;
6205;SDS011;3136;48.788;9.772;2023-08-06T03:49:39;11.87;;;6.67;;
6205;SDS011;3136;48.788;9.772;2023-08-06T03:52:05;8.10;;;6.57;;
6205;SDS011;3136;48.788;9.772;2023-08-06T03:54:31;10.20;;;6.30;;
6205;SDS011;3136;48.788;9.772;2023-08-06T03:56:56;7.53;;;6.23;;
6205;SDS011;3136;48.788;9.772;2023-08-06T03:59:22;8.27;;;7.00;;
6205;SDS011;3136;48.788;9.772;2023-08-06T04:01:48;9.23;;;6.67;;
6205;SDS011;3136;48.788;9.772;2023-08-06T04:04:13;8.33;;;6.20;;
6205;SDS011;3136;48.788;9.772;2023-08-06T04:06:39;7.33;;;5.70;;
6205;SDS011;3136;48.788;9.772;2023-08-06T04:09:04;7.17;;;6.43;;
6205;SDS011;3136;48.788;9.772;2023-08-06T04:11:30;8.03;;;6.43;;
6205;SDS011;3136;48.788;9.772;2023-08-06T04:13:55;7.17;;;6.27;;
6205;SDS011;3136;48.788;9.772;2023-08-06T04:16:21;10.33;;;6.70;;
6205;SDS011;3136;48.788;9.772;2023-08-06T04:18:47;7.70;;;6.60;;
6205;SDS011;3136;48.788;9.772;2023-08-06T04:21:12;7.83;;;6.40;;
6205;SDS011;3136;48.788;9.772;2023-08-06T04:23:38;10.63;;;5.93;;
6205;SDS011;3136;48.788;9.772;2023-08-06T04:26:03;7.40;;;5.70;;
6205;SDS011;3136;48.788;9.772;2023-08-06T04:28:29;13.20;;;5.87;;
6205;SDS011;3136;48.788;9.772;2023-08-06T04:30:55;7.20;;;5.83;;
6205;SDS011;3136;48.788;9.772;2023-08-06T04:33:20;8.10;;;5.80;;
6205;SDS011;3136;48.788;9.772;2023-08-06T04:35:46;6.67;;;5.20;;
6205;SDS011;3136;48.788;9.772;2023-08-06T04:38:12;7.53;;;4.97;;
6205;SDS011;3136;48.788;9.772;2023-08-06T04:40:37;8.20;;;5.87;;
6205;SDS011;3136;48.788;9.772;2023-08-06T04:43:03;9.73;;;5.20;;
6205;SDS011;3136;48.788;9.772;2023-08-06T04:45:28;4.90;;;4.37;;
6205;SDS011;3136;48.788;9.772;2023-08-06T04:47:54;4.97;;;4.30;;
6205;SDS011;3136;48.788;9.772;2023-08-06T04:50:20;5.03;;;4.53;;
6205;SDS011;3136;48.788;9.772;2023-08-06T04:52:45;7.03;;;4.80;;
6205;SDS011;3136;48.788;9.772;2023-08-06T04:55:11;5.77;;;4.20;;
6205;SDS011;3136;48.788;9.772;2023-08-06T04:57:36;9.00;;;4.43;;
6205;SDS011;3136;48.788;9.772;2023-08-06T05:00:02;6.83;;;4.57;;
6205;SDS011;3136;48.788;9.772;2023-08-06T05:02:29;7.93;;;5.10;;
6205;SDS011;3136;48.788;9.772;2023-08-06T05:04:57;9.00;;;5.03;;
6205;SDS011;3136;48.788;9.772;2023-08-06T05:07:23;8.90;;;5.13;;
6205;SDS011;3136;48.788;9.772;2023-08-06T05:09:48;5.73;;;4.73;;
6205;SDS011;3136;48.788;9.772;2023-08-06T05:12:14;6.83;;;4.87;;
6205;SDS011;3136;48.788;9.772;2023-08-06T05:14:39;6.77;;;4.07;;
6205;SDS011;3136;48.788;9.772;2023-08-06T05:17:05;4.77;;;3.80;;
6205;SDS011;3136;48.788;9.772;2023-08-06T05:19:30;4.93;;;3.70;;
6205;SDS011;3136;48.788;9.772;2023-08-06T05:21:56;4.10;;;2.80;;
6205;SDS011;3136;48.788;9.772;2023-08-06T05:24:22;5.30;;;2.83;;
6205;SDS011;3136;48.788;9.772;2023-08-06T05:26:47;5.13;;;2.63;;
6205;SDS011;3136;48.788;9.772;2023-08-06T05:29:13;3.53;;;2.03;;
6205;SDS011;3136;48.788;9.772;2023-08-06T05:31:39;2.43;;;1.97;;
6205;SDS011;3136;48.788;9.772;2023-08-06T05:34:04;7.53;;;2.33;;
6205;SDS011;3136;48.788;9.772;2023-08-06T05:36:30;4.20;;;1.93;;
6205;SDS011;3136;48.788;9.772;2023-08-06T05:38:55;3.13;;;2.00;;
6205;SDS011;3136;48.788;9.772;2023-08-06T05:41:21;5.60;;;1.87;;
6205;SDS011;3136;48.788;9.772;2023-08-06T05:43:46;3.63;;;1.97;;
6205;SDS011;3136;48.788;9.772;2023-08-06T05:46:12;3.77;;;2.00;;
6205;SDS011;3136;48.788;9.772;2023-08-06T05:48:38;3.40;;;1.90;;
6205;SDS011;3136;48.788;9.772;2023-08-06T05:51:03;3.70;;;2.10;;
6205;SDS011;3136;48.788;9.772;2023-08-06T05:53:29;5.70;;;2.17;;
6205;SDS011;3136;48.788;9.772;2023-08-06T05:55:54;3.07;;;1.67;;
6205;SDS011;3136;48.788;9.772;2023-08-06T05:58:20;2.97;;;1.80;;
6205;SDS011;3136;48.788;9.772;2023-08-06T06:00:45;3.60;;;1.63;;
6205;SDS011;3136;48.788;9.772;2023-08-06T06:03:11;6.70;;;1.70;;
6205;SDS011;3136;48.788;9.772;2023-08-06T06:05:39;4.93;;;1.83;;
6205;SDS011;3136;48.788;9.772;2023-08-06T06:08:05;2.30;;;1.80;;
6205;SDS011;3136;48.788;9.772;2023-08-06T06:10:31;4.17;;;1.50;;
6205;SDS011;3136;48.788;9.772;2023-08-06T06:12:56;4.27;;;1.63;;
6205;SDS011;3136;48.788;9.772;2023-08-06T06:15:22;3.00;;;1.60;;
6205;SDS011;3136;48.788;9.772;2023-08-06T06:17:47;2.50;;;1.60;;
6205;SDS011;3136;48.788;9.772;2023-08-06T06:20:13;3.70;;;1.70;;
6205;SDS011;3136;48.788;9.772;2023-08-06T06:22:38;3.73;;;2.27;;
6205;SDS011;3136;48.788;9.772;2023-08-06T06:25:04;3.73;;;1.87;;
6205;SDS011;3136;48.788;9.772;2023-08-06T06:27:30;4.57;;;1.60;;
6205;SDS011;3136;48.788;9.772;2023-08-06T06:29:56;2.33;;;1.57;;
6205;SDS011;3136;48.788;9.772;2023-08-06T06:32:21;2.47;;;1.60;;
6205;SDS011;3136;48.788;9.772;2023-08-06T06:34:47;5.30;;;2.73;;
6205;SDS011;3136;48.788;9.772;2023-08-06T06:37:13;2.77;;;1.33;;
6205;SDS011;3136;48.788;9.772;2023-08-06T06:39:38;4.07;;;1.60;;
6205;SDS011;3136;48.788;9.772;2023-08-06T06:42:04;2.13;;;1.40;;
6205;SDS011;3136;48.788;9.772;2023-08-06T06:44:30;2.80;;;1.43;;
6205;SDS011;3136;48.788;9.772;2023-08-06T06:46:55;2.67;;;1.23;;
6205;SDS011;3136;48.788;9.772;2023-08-06T06:49:21;5.10;;;1.47;;
6205;SDS011;3136;48.788;9.772;2023-08-06T06:51:46;3.27;;;1.37;;
6205;SDS011;3136;48.788;9.772;2023-08-06T06:54:12;3.70;;;1.27;;
6205;SDS011;3136;48.788;9.772;2023-08-06T06:56:38;3.20;;;1.20;;
6205;SDS011;3136;48.788;9.772;2023-08-06T06:59:03;2.13;;;1.30;;
6205;SDS011;3136;48.788;9.772;2023-08-06T07:01:29;1.80;;;1.20;;
6205;SDS011;3136;48.788;9.772;2023-08-06T07:03:54;1.63;;;1.13;;
6205;SDS011;3136;48.788;9.772;2023-08-06T07:06:20;2.23;;;1.13;;
6205;SDS011;3136;48.788;9.772;2023-08-06T07:08:46;3.10;;;1.10;;
6205;SDS011;3136;48.788;9.772;2023-08-06T07:11:11;3.13;;;1.27;;
6205;SDS011;3136;48.788;9.772;2023-08-06T07:13:37;1.97;;;1.10;;
6205;SDS011;3136;48.788;9.772;2023-08-06T07:16:02;3.00;;;1.20;;
6205;SDS011;3136;48.788;9.772;2023-08-06T07:18:28;2.20;;;1.00;;
6205;SDS011;3136;48.788;9.772;2023-08-06T07:20:54;3.07;;;1.23;;
6205;SDS011;3136;48.788;9.772;2023-08-06T07:23:21;2.73;;;1.13;;
6205;SDS011;3136;48.788;9.772;2023-08-06T07:25:47;1.27;;;0.90;;
6205;SDS011;3136;48.788;9.772;2023-08-06T07:28:13;1.93;;;1.10;;
6205;SDS011;3136;48.788;9.772;2023-08-06T07:30:40;2.93;;;1.00;;
6205;SDS011;3136;48.788;9.772;2023-08-06T07:33:06;2.10;;;1.00;;
6205;SDS011;3136;48.788;9.772;2023-08-06T07:35:31;2.90;;;1.20;;
6205;SDS011;3136;48.788;9.772;2023-08-06T07:37:57;1.70;;;1.10;;
6205;SDS011;3136;48.788;9.772;2023-08-06T07:40:23;2.47;;;1.10;;
6205;SDS011;3136;48.788;9.772;2023-08-06T07:42:49;2.80;;;1.40;;
6205;SDS011;3136;48.788;9.772;2023-08-06T07:45:14;1.00;;;0.63;;
6205;SDS011;3136;48.788;9.772;2023-08-06T07:47:40;1.90;;;0.80;;
6205;SDS011;3136;48.788;9.772;2023-08-06T07:50:06;1.37;;;0.87;;
6205;SDS011;3136;48.788;9.772;2023-08-06T07:52:32;1.55;;;0.80;;
6205;SDS011;3136;48.788;9.772;2023-08-06T07:54:57;0.73;;;0.37;;
6205;SDS011;3136;48.788;9.772;2023-08-06T07:57:23;0.50;;;0.50;;
6205;SDS011;3136;48.788;9.772;2023-08-06T07:59:49;2.63;;;0.70;;
6205;SDS011;3136;48.788;9.772;2023-08-06T08:02:15;0.70;;;0.50;;
6205;SDS011;3136;48.788;9.772;2023-08-06T08:04:40;2.17;;;0.67;;
6205;SDS011;3136;48.788;9.772;2023-08-06T08:07:06;1.13;;;0.70;;
6205;SDS011;3136;48.788;9.772;2023-08-06T08:09:32;0.90;;;0.57;;
6205;SDS011;3136;48.788;9.772;2023-08-06T08:11:59;0.70;;;0.70;;
6205;SDS011;3136;48.788;9.772;2023-08-06T08:14:26;1.47;;;0.60;;
6205;SDS011;3136;48.788;9.772;2023-08-06T08:16:51;1.60;;;0.63;;
6205;SDS011;3136;48.788;9.772;2023-08-06T08:19:17;1.20;;;0.50;;
6205;SDS011;3136;48.788;9.772;2023-08-06T08:21:43;1.13;;;0.40;;
6205;SDS011;3136;48.788;9.772;2023-08-06T08:24:09;1.30;;;0.70;;
6205;SDS011;3136;48.788;9.772;2023-08-06T08:26:34;1.23;;;0.80;;
6205;SDS011;3136;48.788;9.772;2023-08-06T08:29:00;0.90;;;0.60;;
6205;SDS011;3136;48.788;9.772;2023-08-06T08:31:25;0.53;;;0.50;;
6205;SDS011;3136;48.788;9.772;2023-08-06T08:33:51;1.60;;;0.83;;
6205;SDS011;3136;48.788;9.772;2023-08-06T08:36:18;1.10;;;0.60;;
6205;SDS011;3136;48.788;9.772;2023-08-06T08:38:44;1.37;;;0.70;;
6205;SDS011;3136;48.788;9.772;2023-08-06T08:41:09;0.80;;;0.50;;
6205;SDS011;3136;48.788;9.772;2023-08-06T08:43:36;1.20;;;0.70;;
6205;SDS011;3136;48.788;9.772;2023-08-06T08:46:02;1.30;;;0.50;;
6205;SDS011;3136;48.788;9.772;2023-08-06T08:48:30;0.57;;;0.50;;
6205;SDS011;3136;48.788;9.772;2023-08-06T08:50:56;0.30;;;0.30;;
6205;SDS011;3136;48.788;9.772;2023-08-06T08:53:22;0.63;;;0.50;;
6205;SDS011;3136;48.788;9.772;2023-08-06T08:55:49;3.30;;;0.40;;
6205;SDS011;3136;48.788;9.772;2023-08-06T08:58:15;0.80;;;0.47;;
6205;SDS011;3136;48.788;9.772;2023-08-06T09:00:45;2.30;;;0.57;;
6205;SDS011;3136;48.788;9.772;2023-08-06T09:03:11;1.80;;;0.60;;
6205;SDS011;3136;48.788;9.772;2023-08-06T09:05:37;2.30;;;0.63;;
6205;SDS011;3136;48.788;9.772;2023-08-06T09:08:07;0.40;;;0.30;;
6205;SDS011;3136;48.788;9.772;2023-08-06T09:10:35;0.50;;;0.30;;
6205;SDS011;3136;48.788;9.772;2023-08-06T09:13:02;1.53;;;0.30;;
6205;SDS011;3136;48.788;9.772;2023-08-06T09:15:28;1.47;;;0.50;;
6205;SDS011;3136;48.788;9.772;2023-08-06T09:17:55;2.13;;;0.77;;
6205;SDS011;3136;48.788;9.772;2023-08-06T09:20:20;0.53;;;0.43;;
6205;SDS011;3136;48.788;9.772;2023-08-06T09:22:46;1.03;;;0.53;;
6205;SDS011;3136;48.788;9.772;2023-08-06T09:25:22;1.07;;;0.30;;
6205;SDS011;3136;48.788;9.772;2023-08-06T09:27:49;0.47;;;0.20;;
6205;SDS011;3136;48.788;9.772;2023-08-06T09:30:28;2.40;;;0.50;;
6205;SDS011;3136;48.788;9.772;2023-08-06T09:32:58;0.30;;;0.30;;
6205;SDS011;3136;48.788;9.772;2023-08-06T09:35:24;0.37;;;0.30;;
6205;SDS011;3136;48.788;9.772;2023-08-06T09:37:49;0.30;;;0.30;;
6205;SDS011;3136;48.788;9.772;2023-08-06T09:40:49;0.30;;;0.30;;
6205;SDS011;3136;48.788;9.772;2023-08-06T09:43:07;0.20;;;0.20;;
6205;SDS011;3136;48.788;9.772;2023-08-06T09:45:36;0.20;;;0.20;;
6205;SDS011;3136;48.788;9.772;2023-08-06T09:48:03;0.27;;;0.23;;
6205;SDS011;3136;48.788;9.772;2023-08-06T09:50:33;0.87;;;0.13;;
6205;SDS011;3136;48.788;9.772;2023-08-06T09:53:04;0.40;;;0.40;;
6205;SDS011;3136;48.788;9.772;2023-08-06T09:55:33;0.30;;;0.30;;
6205;SDS011;3136;48.788;9.772;2023-08-06T09:57:59;0.20;;;0.20;;
6205;SDS011;3136;48.788;9.772;2023-08-06T10:00:25;1.03;;;0.47;;
6205;SDS011;3136;48.788;9.772;2023-08-06T10:02:52;2.37;;;0.40;;
6205;SDS011;3136;48.788;9.772;2023-08-06T10:05:21;0.70;;;0.37;;
6205;SDS011;3136;48.788;9.772;2023-08-06T10:07:47;2.13;;;0.40;;
6205;SDS011;3136;48.788;9.772;2023-08-06T10:10:15;0.30;;;0.30;;
6205;SDS011;3136;48.788;9.772;2023-08-06T10:12:43;0.87;;;0.50;;
6205;SDS011;3136;48.788;9.772;2023-08-06T10:15:14;0.20;;;0.20;;
6205;SDS011;3136;48.788;9.772;2023-08-06T10:17:42;0.83;;;0.43;;
6205;SDS011;3136;48.788;9.772;2023-08-06T10:20:10;0.23;;;0.23;;
6205;SDS011;3136;48.788;9.772;2023-08-06T10:22:36;1.10;;;1.00;;
6205;SDS011;3136;48.788;9.772;2023-08-06T10:25:07;0.50;;;0.40;;
6205;SDS011;3136;48.788;9.772;2023-08-06T10:27:33;0.77;;;0.30;;
6205;SDS011;3136;48.788;9.772;2023-08-06T10:30:32;0.97;;;0.23;;
6205;SDS011;3136;48.788;9.772;2023-08-06T10:33:02;0.30;;;0.30;;
6205;SDS011;3136;48.788;9.772;2023-08-06T10:35:29;1.73;;;0.20;;
6205;SDS011;3136;48.788;9.772;2023-08-06T10:38:14;0.50;;;0.30;;
6205;SDS011;3136;48.788;9.772;2023-08-06T10:40:48;0.57;;;0.30;;
6205;SDS011;3136;48.788;9.772;2023-08-06T10:43:25;0.83;;;0.20;;
6205;SDS011;3136;48.788;9.772;2023-08-06T10:45:55;0.20;;;0.20;;
6205;SDS011;3136;48.788;9.772;2023-08-06T10:48:28;2.10;;;0.30;;
6205;SDS011;3136;48.788;9.772;2023-08-06T10:51:06;0.20;;;0.20;;
6205;SDS011;3136;48.788;9.772;2023-08-06T10:53:35;2.10;;;0.30;;
6205;SDS011;3136;48.788;9.772;2023-08-06T10:56:02;0.20;;;0.20;;
6205;SDS011;3136;48.788;9.772;2023-08-06T10:58:36;1.00;;;0.20;;
6205;SDS011;3136;48.788;9.772;2023-08-06T11:01:02;0.50;;;0.40;;
6205;SDS011;3136;48.788;9.772;2023-08-06T11:03:28;0.30;;;0.30;;
6205;SDS011;3136;48.788;9.772;2023-08-06T11:05:53;1.33;;;0.40;;
6205;SDS011;3136;48.788;9.772;2023-08-06T11:08:23;0.30;;;0.20;;
6205;SDS011;3136;48.788;9.772;2023-08-06T11:10:52;0.33;;;0.30;;
6205;SDS011;3136;48.788;9.772;2023-08-06T11:13:17;1.37;;;0.30;;
6205;SDS011;3136;48.788;9.772;2023-08-06T11:15:46;0.30;;;0.30;;
6205;SDS011;3136;48.788;9.772;2023-08-06T11:18:12;0.40;;;0.30;;
6205;SDS011;3136;48.788;9.772;2023-08-06T11:20:38;0.27;;;0.27;;
6205;SDS011;3136;48.788;9.772;2023-08-06T11:23:04;0.87;;;0.30;;
6205;SDS011;3136;48.788;9.772;2023-08-06T11:25:30;0.50;;;0.30;;
6205;SDS011;3136;48.788;9.772;2023-08-06T11:27:56;0.33;;;0.33;;
6205;SDS011;3136;48.788;9.772;2023-08-06T11:30:21;0.47;;;0.37;;
6205;SDS011;3136;48.788;9.772;2023-08-06T11:32:47;0.53;;;0.40;;
6205;SDS011;3136;48.788;9.772;2023-08-06T11:35:14;0.43;;;0.20;;
6205;SDS011;3136;48.788;9.772;2023-08-06T11:37:44;0.50;;;0.50;;
6205;SDS011;3136;48.788;9.772;2023-08-06T11:40:11;1.13;;;0.57;;
6205;SDS011;3136;48.788;9.772;2023-08-06T11:42:37;0.40;;;0.40;;
6205;SDS011;3136;48.788;9.772;2023-08-06T11:45:03;0.47;;;0.40;;
6205;SDS011;3136;48.788;9.772;2023-08-06T11:47:29;0.30;;;0.30;;
6205;SDS011;3136;48.788;9.772;2023-08-06T11:49:55;0.10;;;0.10;;
6205;SDS011;3136;48.788;9.772;2023-08-06T11:52:21;0.50;;;0.40;;
6205;SDS011;3136;48.788;9.772;2023-08-06T11:55:04;0.30;;;0.30;;
6205;SDS011;3136;48.788;9.772;2023-08-06T11:57:33;0.50;;;0.50;;
6205;SDS011;3136;48.788;9.772;2023-08-06T12:00:11;0.60;;;0.30;;
6205;SDS011;3136;48.788;9.772;2023-08-06T12:02:41;0.30;;;0.30;;
6205;SDS011;3136;48.788;9.772;2023-08-06T12:05:14;2.00;;;0.60;;
6205;SDS011;3136;48.788;9.772;2023-08-06T12:07:50;0.80;;;0.60;;
6205;SDS011;3136;48.788;9.772;2023-08-06T12:10:17;0.70;;;0.70;;
6205;SDS011;3136;48.788;9.772;2023-08-06T12:12:47;1.50;;;1.00;;
6205;SDS011;3136;48.788;9.772;2023-08-06T12:15:13;0.60;;;0.60;;
6205;SDS011;3136;48.788;9.772;2023-08-06T12:17:38;1.47;;;0.67;;
6205;SDS011;3136;48.788;9.772;2023-08-06T12:20:05;0.70;;;0.70;;
6205;SDS011;3136;48.788;9.772;2023-08-06T12:22:31;1.87;;;0.93;;
6205;SDS011;3136;48.788;9.772;2023-08-06T12:25:00;1.60;;;1.03;;
6205;SDS011;3136;48.788;9.772;2023-08-06T12:27:27;3.20;;;0.90;;
6205;SDS011;3136;48.788;9.772;2023-08-06T12:29:52;1.63;;;1.00;;
6205;SDS011;3136;48.788;9.772;2023-08-06T12:32:18;0.73;;;0.73;;
6205;SDS011;3136;48.788;9.772;2023-08-06T12:34:44;3.40;;;1.10;;
6205;SDS011;3136;48.788;9.772;2023-08-06T12:37:10;0.97;;;0.93;;
6205;SDS011;3136;48.788;9.772;2023-08-06T12:39:35;1.57;;;1.10;;
6205;SDS011;3136;48.788;9.772;2023-08-06T12:42:02;1.63;;;1.20;;
6205;SDS011;3136;48.788;9.772;2023-08-06T12:44:29;1.20;;;1.10;;
6205;SDS011;3136;48.788;9.772;2023-08-06T12:46:54;3.67;;;1.20;;
6205;SDS011;3136;48.788;9.772;2023-08-06T12:49:20;1.30;;;1.20;;
6205;SDS011;3136;48.788;9.772;2023-08-06T12:51:47;1.53;;;1.20;;
6205;SDS011;3136;48.788;9.772;2023-08-06T12:54:13;2.73;;;1.37;;
6205;SDS011;3136;48.788;9.772;2023-08-06T12:56:39;1.83;;;1.10;;
6205;SDS011;3136;48.788;9.772;2023-08-06T12:59:04;2.27;;;1.27;;
6205;SDS011;3136;48.788;9.772;2023-08-06T13:01:30;2.20;;;1.40;;
6205;SDS011;3136;48.788;9.772;2023-08-06T13:03:56;2.03;;;1.30;;
6205;SDS011;3136;48.788;9.772;2023-08-06T13:06:23;1.60;;;1.20;;
6205;SDS011;3136;48.788;9.772;2023-08-06T13:08:48;2.33;;;1.50;;
6205;SDS011;3136;48.788;9.772;2023-08-06T13:11:14;2.07;;;1.30;;
6205;SDS011;3136;48.788;9.772;2023-08-06T13:13:39;1.53;;;1.37;;
6205;SDS011;3136;48.788;9.772;2023-08-06T13:16:05;2.07;;;1.50;;
6205;SDS011;3136;48.788;9.772;2023-08-06T13:18:30;2.73;;;1.47;;
6205;SDS011;3136;48.788;9.772;2023-08-06T13:20:56;2.00;;;1.60;;
6205;SDS011;3136;48.788;9.772;2023-08-06T13:23:21;1.70;;;1.30;;
6205;SDS011;3136;48.788;9.772;2023-08-06T13:25:47;2.33;;;1.70;;
6205;SDS011;3136;48.788;9.772;2023-08-06T13:28:13;3.10;;;1.60;;
6205;SDS011;3136;48.788;9.772;2023-08-06T13:30:41;2.10;;;1.70;;
6205;SDS011;3136;48.788;9.772;2023-08-06T13:33:10;2.93;;;1.60;;
6205;SDS011;3136;48.788;9.772;2023-08-06T13:35:36;2.70;;;1.70;;
6205;SDS011;3136;48.788;9.772;2023-08-06T13:38:02;1.70;;;1.30;;
6205;SDS011;3136;48.788;9.772;2023-08-06T13:40:28;2.13;;;1.53;;
6205;SDS011;3136;48.788;9.772;2023-08-06T13:42:55;2.03;;;1.50;;
6205;SDS011;3136;48.788;9.772;2023-08-06T13:45:20;3.27;;;1.50;;
6205;SDS011;3136;48.788;9.772;2023-08-06T13:47:46;2.03;;;1.30;;
6205;SDS011;3136;48.788;9.772;2023-08-06T13:50:12;2.50;;;1.40;;
6205;SDS011;3136;48.788;9.772;2023-08-06T13:52:38;1.50;;;1.23;;
6205;SDS011;3136;48.788;9.772;2023-08-06T13:55:04;3.60;;;1.63;;
6205;SDS011;3136;48.788;9.772;2023-08-06T13:57:30;1.77;;;1.10;;
6205;SDS011;3136;48.788;9.772;2023-08-06T13:59:56;2.60;;;1.27;;
6205;SDS011;3136;48.788;9.772;2023-08-06T14:02:22;2.93;;;1.20;;
6205;SDS011;3136;48.788;9.772;2023-08-06T14:04:47;1.50;;;1.40;;
6205;SDS011;3136;48.788;9.772;2023-08-06T14:07:13;2.00;;;1.30;;
6205;SDS011;3136;48.788;9.772;2023-08-06T14:09:39;5.40;;;1.40;;
6205;SDS011;3136;48.788;9.772;2023-08-06T14:12:05;1.70;;;1.30;;
6205;SDS011;3136;48.788;9.772;2023-08-06T14:14:31;2.37;;;1.20;;
6205;SDS011;3136;48.788;9.772;2023-08-06T14:16:56;1.63;;;1.20;;
6205;SDS011;3136;48.788;9.772;2023-08-06T14:19:22;2.50;;;1.20;;
6205;SDS011;3136;48.788;9.772;2023-08-06T14:21:48;1.90;;;1.13;;
6205;SDS011;3136;48.788;9.772;2023-08-06T14:24:14;1.33;;;1.00;;
6205;SDS011;3136;48.788;9.772;2023-08-06T14:26:39;1.50;;;0.90;;
6205;SDS011;3136;48.788;9.772;2023-08-06T14:29:05;3.20;;;1.30;;
6205;SDS011;3136;48.788;9.772;2023-08-06T14:31:31;2.40;;;1.03;;
6205;SDS011;3136;48.788;9.772;2023-08-06T14:33:57;1.13;;;0.90;;
6205;SDS011;3136;48.788;9.772;2023-08-06T14:36:22;1.07;;;0.97;;
6205;SDS011;3136;48.788;9.772;2023-08-06T14:38:48;1.30;;;0.93;;
6205;SDS011;3136;48.788;9.772;2023-08-06T14:41:13;3.00;;;1.00;;
6205;SDS011;3136;48.788;9.772;2023-08-06T14:43:39;1.03;;;0.90;;
6205;SDS011;3136;48.788;9.772;2023-08-06T14:46:05;1.20;;;0.80;;
6205;SDS011;3136;48.788;9.772;2023-08-06T14:48:30;0.80;;;0.80;;
6205;SDS011;3136;48.788;9.772;2023-08-06T14:50:56;0.77;;;0.77;;
6205;SDS011;3136;48.788;9.772;2023-08-06T14:53:22;2.17;;;1.00;;
6205;SDS011;3136;48.788;9.772;2023-08-06T14:55:47;1.10;;;0.97;;
6205;SDS011;3136;48.788;9.772;2023-08-06T14:58:13;4.20;;;1.00;;
6205;SDS011;3136;48.788;9.772;2023-08-06T15:00:39;1.10;;;0.80;;
6205;SDS011;3136;48.788;9.772;2023-08-06T15:03:05;1.90;;;0.90;;
6205;SDS011;3136;48.788;9.772;2023-08-06T15:05:30;1.50;;;1.10;;
6205;SDS011;3136;48.788;9.772;2023-08-06T15:07:56;1.83;;;1.00;;
6205;SDS011;3136;48.788;9.772;2023-08-06T15:10:21;1.30;;;1.00;;
6205;SDS011;3136;48.788;9.772;2023-08-06T15:12:47;1.67;;;1.00;;
6205;SDS011;3136;48.788;9.772;2023-08-06T15:15:13;2.00;;;1.10;;
6205;SDS011;3136;48.788;9.772;2023-08-06T15:17:39;1.40;;;1.00;;